Aviation Digital Data Service (ADDS)

Output produced by METARs form (1103 UTC 30 April 2017)
found at http://www.aviationweather.gov/adds/metars/
 
MZBZ 301100Z 12010KT 9999 SCT015 28/26 A2979 Q1009 NOSIG
TAF MZBZ 300900Z 3012/0112 12012KT 9000 FEW023